Time;durP1;ratioP1;P1;durP2;ratioP2;P2;SDS_P1;SDS_P2;PMS_P1;PMS_P2;Temp;Humidity;BMP_temperature;BMP_pressure;BME280_temperature;BME280_humidity;BME280_pressure;Samples;Min_cycle;Max_cycle;Signal;HPM_P1;HPM_P2
2022/03/12 00:08:43;;;;;;;13.13;11.73;;;5.00;54.80;;;;;;5849030;24;20252;-85
2022/03/12 00:11:14;;;;;;;11.93;9.57;;;4.90;54.60;;;;;;5987302;23;20207;-85
2022/03/12 00:13:42;;;;;;;14.60;11.13;;;5.00;54.70;;;;;;6022309;23;20191;-85
2022/03/12 00:16:21;;;;;;;13.65;11.40;;;5.00;55.00;;;;;;6144758;23;20220;-86
2022/03/12 00:18:55;;;;;;;11.27;10.18;;;5.00;55.00;;;;;;6142758;23;20691;-85
2022/03/12 00:21:23;;;;;;;14.77;11.82;;;5.00;55.10;;;;;;6137164;23;20199;-86
2022/03/12 00:23:53;;;;;;;13.68;11.35;;;5.00;55.10;;;;;;6138724;23;20200;-86
2022/03/12 00:26:23;;;;;;;11.95;10.60;;;5.10;55.00;;;;;;6138105;23;20200;-85
2022/03/12 00:28:51;;;;;;;16.00;10.75;;;5.10;54.80;;;;;;6138722;23;20183;-86
2022/03/12 00:31:18;;;;;;;18.73;12.55;;;5.20;54.70;;;;;;6138930;23;20200;-85
2022/03/12 00:33:44;;;;;;;15.32;11.82;;;5.20;54.70;;;;;;6140397;23;20179;-86
2022/03/12 00:36:13;;;;;;;14.32;12.07;;;5.30;55.00;;;;;;6139160;23;20207;-86
2022/03/12 00:38:39;;;;;;;13.45;11.70;;;5.30;55.20;;;;;;6136879;23;20176;-86
2022/03/12 00:41:08;;;;;;;18.92;12.98;;;5.40;55.40;;;;;;6138451;23;20704;-85
2022/03/12 00:43:35;;;;;;;13.52;12.23;;;5.40;55.40;;;;;;6139552;23;20199;-86
2022/03/12 00:46:03;;;;;;;14.95;10.75;;;5.50;54.80;;;;;;6141433;23;20231;-86
2022/03/12 00:48:31;;;;;;;13.23;11.90;;;5.40;54.20;;;;;;6141141;23;20199;-86
2022/03/12 00:50:58;;;;;;;13.20;11.80;;;5.30;54.10;;;;;;6139399;23;20696;-86
2022/03/12 00:53:24;;;;;;;13.50;10.70;;;5.20;53.90;;;;;;6138723;23;20586;-86
2022/03/12 00:55:51;;;;;;;11.30;10.00;;;5.10;54.00;;;;;;6138841;23;20270;-86
2022/03/12 00:58:19;;;;;;;12.68;10.52;;;5.20;54.00;;;;;;6140021;23;20270;-86
2022/03/12 01:00:46;;;;;;;15.45;12.48;;;5.10;53.80;;;;;;6140434;23;20231;-86
2022/03/12 01:03:13;;;;;;;17.05;10.65;;;5.10;53.80;;;;;;6138475;23;20179;-85
2022/03/12 01:05:52;;;;;;;11.00;10.00;;;5.10;53.60;;;;;;6139287;23;20206;-86
2022/03/12 01:08:20;;;;;;;12.85;10.32;;;5.00;53.60;;;;;;6138887;23;20195;-85
2022/03/12 01:10:48;;;;;;;12.82;11.60;;;5.00;53.80;;;;;;6139884;23;20231;-86
2022/03/12 01:13:15;;;;;;;10.88;9.77;;;5.00;53.80;;;;;;6137833;23;20706;-86
2022/03/12 01:15:43;;;;;;;12.45;11.15;;;5.00;53.90;;;;;;6140156;23;20200;-86
2022/03/12 01:18:13;;;;;;;14.98;9.88;;;5.00;53.70;;;;;;6139728;23;20191;-86
2022/03/12 01:20:40;;;;;;;12.02;10.82;;;5.00;53.60;;;;;;6141011;23;20234;-86
2022/03/12 01:23:07;;;;;;;10.73;8.75;;;4.90;53.00;;;;;;6140922;23;20202;-86
2022/03/12 01:25:33;;;;;;;10.68;9.25;;;4.90;53.20;;;;;;6140677;23;20176;-85
2022/03/12 01:28:00;;;;;;;12.27;10.38;;;4.80;53.50;;;;;;6141111;23;20179;-86
2022/03/12 01:30:30;;;;;;;12.88;10.15;;;4.80;53.80;;;;;;6141305;23;20286;-86
2022/03/12 01:32:59;;;;;;;13.23;9.52;;;4.80;53.80;;;;;;6141252;23;20262;-86
2022/03/12 01:35:26;;;;;;;16.20;9.98;;;4.80;53.90;;;;;;6140632;23;20675;-85
2022/03/12 01:37:54;;;;;;;10.18;9.13;;;4.80;54.00;;;;;;6141675;23;20187;-86
2022/03/12 01:40:21;;;;;;;10.98;9.65;;;4.80;54.10;;;;;;6140577;23;20221;-86
2022/03/12 01:42:48;;;;;;;11.98;9.93;;;4.80;54.00;;;;;;6141441;23;20244;-84
2022/03/12 01:45:26;;;;;;;9.00;8.20;;;4.70;54.00;;;;;;6141177;23;20495;-86
2022/03/12 01:47:55;;;;;;;13.18;10.00;;;4.70;54.00;;;;;;6141615;23;20195;-85
2022/03/12 01:50:26;;;;;;;11.65;9.27;;;4.70;53.70;;;;;;6140430;23;20287;-86
2022/03/12 01:52:58;;;;;;;13.75;10.23;;;4.80;53.70;;;;;;6141780;23;20195;-86
2022/03/12 01:55:30;;;;;;;10.05;8.85;;;4.80;53.60;;;;;;6141535;23;20168;-86
2022/03/12 01:57:57;;;;;;;11.05;9.77;;;4.80;53.60;;;;;;6141693;23;20220;-85
2022/03/12 02:00:25;;;;;;;11.40;9.93;;;4.80;53.50;;;;;;6141528;23;20203;-85
2022/03/12 02:02:53;;;;;;;12.10;9.88;;;4.80;53.70;;;;;;6141316;23;20210;-86
2022/03/12 02:05:20;;;;;;;12.50;9.25;;;4.70;53.80;;;;;;6141205;23;20184;-86
2022/03/12 02:07:48;;;;;;;10.70;9.65;;;4.70;53.80;;;;;;6140960;23;20184;-86
2022/03/12 02:10:19;;;;;;;9.25;8.35;;;4.60;54.00;;;;;;6140619;23;20733;-86
2022/03/12 02:12:46;;;;;;;9.38;8.25;;;4.70;53.90;;;;;;6141222;23;20179;-85
2022/03/12 02:15:15;;;;;;;10.90;8.63;;;4.70;53.50;;;;;;6141767;23;20191;-86
2022/03/12 02:17:42;;;;;;;10.68;8.13;;;4.80;53.40;;;;;;6142851;23;20204;-86
2022/03/12 02:20:09;;;;;;;10.43;9.23;;;4.70;53.40;;;;;;6138409;23;20208;-83
2022/03/12 02:22:35;;;;;;;10.45;9.38;;;4.70;53.50;;;;;;6131590;23;20170;-83
2022/03/12 02:25:04;;;;;;;11.90;9.20;;;4.70;53.60;;;;;;6133234;23;20751;-83
2022/03/12 02:27:32;;;;;;;11.60;10.23;;;4.70;53.70;;;;;;6133263;23;20184;-83
2022/03/12 02:29:59;;;;;;;9.73;8.73;;;4.60;53.50;;;;;;6132446;23;20211;-83
2022/03/12 02:32:26;;;;;;;13.68;9.38;;;4.60;53.50;;;;;;6133215;23;20179;-83
2022/03/12 02:34:54;;;;;;;11.93;9.40;;;4.50;53.50;;;;;;6133028;23;20184;-83
2022/03/12 02:37:28;;;;;;;9.00;8.10;;;4.50;53.90;;;;;;6132968;23;20211;-83
2022/03/12 02:39:56;;;;;;;12.02;10.82;;;4.60;54.70;;;;;;6132074;23;20199;-83
2022/03/12 02:42:25;;;;;;;12.40;8.85;;;4.60;53.80;;;;;;6132320;23;20241;-83
2022/03/12 02:44:52;;;;;;;9.10;7.78;;;4.60;53.70;;;;;;6133261;23;20184;-83
2022/03/12 02:47:22;;;;;;;9.98;8.35;;;4.60;53.50;;;;;;6132262;23;20175;-83
2022/03/12 02:49:50;;;;;;;10.55;9.50;;;4.50;53.50;;;;;;6132481;23;20194;-83
2022/03/12 02:52:18;;;;;;;11.00;8.63;;;4.50;53.80;;;;;;6132820;23;20197;-83
2022/03/12 02:54:47;;;;;;;10.80;8.38;;;4.40;53.80;;;;;;6133171;23;20188;-83
2022/03/12 02:57:14;;;;;;;14.30;7.80;;;4.40;53.90;;;;;;6131989;23;20809;-83
2022/03/12 02:59:44;;;;;;;13.32;9.18;;;4.40;53.90;;;;;;6132008;23;20193;-83
2022/03/12 03:02:12;;;;;;;9.13;8.32;;;4.40;54.00;;;;;;6132979;23;20204;-83
2022/03/12 03:04:40;;;;;;;9.88;8.15;;;4.40;54.00;;;;;;6133644;23;20183;-83
2022/03/12 03:07:08;;;;;;;8.63;7.78;;;4.30;54.00;;;;;;6133265;23;20672;-83
2022/03/12 03:09:35;;;;;;;11.50;8.65;;;4.30;54.20;;;;;;6132270;23;20250;-83
2022/03/12 03:12:03;;;;;;;9.45;8.20;;;4.30;54.30;;;;;;6132969;23;20225;-83
2022/03/12 03:14:31;;;;;;;8.65;7.95;;;4.40;54.00;;;;;;6133078;23;20180;-83
2022/03/12 03:17:00;;;;;;;9.25;8.32;;;4.30;54.00;;;;;;6132691;23;20608;-83
2022/03/12 03:19:28;;;;;;;14.18;10.00;;;4.40;54.10;;;;;;6132924;23;20186;-83
2022/03/12 03:21:56;;;;;;;10.00;7.53;;;4.40;54.00;;;;;;6131901;23;20218;-83
2022/03/12 03:24:23;;;;;;;9.40;8.50;;;4.40;54.00;;;;;;6133638;23;20190;-83
2022/03/12 03:26:53;;;;;;;12.20;9.18;;;4.40;53.90;;;;;;6132170;23;20551;-83
2022/03/12 03:29:21;;;;;;;12.38;9.80;;;4.40;54.00;;;;;;6134161;23;20183;-83
2022/03/12 03:31:48;;;;;;;9.00;7.95;;;4.40;54.10;;;;;;6135402;23;20199;-83
2022/03/12 03:34:17;;;;;;;10.25;9.25;;;4.40;54.00;;;;;;6133269;23;20180;-83
2022/03/12 03:36:44;;;;;;;10.38;8.43;;;4.40;53.90;;;;;;6132993;23;20196;-83
2022/03/12 03:39:11;;;;;;;15.43;8.60;;;4.40;54.60;;;;;;6132228;23;20675;-83
2022/03/12 03:41:38;;;;;;;8.75;7.75;;;4.40;53.80;;;;;;6132236;23;20203;-83
2022/03/12 03:44:06;;;;;;;14.88;8.38;;;4.40;53.80;;;;;;6132246;23;20190;-83
2022/03/12 03:46:34;;;;;;;9.50;7.90;;;4.40;53.80;;;;;;6132352;23;20179;-83
2022/03/12 03:49:02;;;;;;;11.23;9.27;;;4.40;53.90;;;;;;6132361;23;20179;-83
2022/03/12 03:51:37;;;;;;;8.65;7.68;;;4.40;54.00;;;;;;6132559;23;20206;-82
2022/03/12 03:54:07;;;;;;;12.25;9.50;;;4.40;53.90;;;;;;6133436;23;20175;-82
2022/03/12 03:56:34;;;;;;;11.90;9.45;;;4.30;53.90;;;;;;6140486;23;20534;-82
2022/03/12 03:59:01;;;;;;;9.48;7.68;;;4.30;54.00;;;;;;6132858;23;20184;-82
2022/03/12 04:01:27;;;;;;;10.90;8.05;;;4.20;53.90;;;;;;6131487;23;20207;-82
2022/03/12 04:03:54;;;;;;;9.98;8.30;;;4.10;53.80;;;;;;6132139;23;20197;-82
2022/03/12 04:06:22;;;;;;;9.45;8.45;;;4.10;53.90;;;;;;6132700;23;20180;-82
2022/03/12 04:08:51;;;;;;;9.57;8.20;;;4.10;54.00;;;;;;6131890;23;20183;-82
2022/03/12 04:11:19;;;;;;;12.90;8.05;;;4.00;54.10;;;;;;6132779;23;20234;-81
2022/03/12 04:13:47;;;;;;;9.27;6.88;;;4.00;54.20;;;;;;6131733;23;20192;-84
2022/03/12 04:16:14;;;;;;;8.48;7.70;;;4.00;54.30;;;;;;6132373;23;20206;-82
2022/03/12 04:18:45;;;;;;;9.68;8.25;;;3.90;54.50;;;;;;6132338;23;20180;-82
2022/03/12 04:21:12;;;;;;;12.85;8.68;;;4.00;54.60;;;;;;6131883;23;20210;-82
2022/03/12 04:23:39;;;;;;;11.93;7.82;;;3.90;54.60;;;;;;6132956;23;20537;-82
2022/03/12 04:26:09;;;;;;;10.65;8.80;;;3.90;54.80;;;;;;6133092;23;20189;-83
2022/03/12 04:28:37;;;;;;;10.35;8.40;;;3.80;54.80;;;;;;6132906;23;20199;-82
2022/03/12 04:31:05;;;;;;;10.38;7.70;;;3.90;55.00;;;;;;6133413;23;20204;-83
2022/03/12 04:33:33;;;;;;;9.48;8.00;;;3.90;55.00;;;;;;6133024;23;20186;-82
2022/03/12 04:36:00;;;;;;;7.60;6.90;;;3.80;55.00;;;;;;6136755;23;20184;-81
2022/03/12 04:38:28;;;;;;;7.72;7.03;;;3.80;55.00;;;;;;6147118;23;20180;-81
2022/03/12 04:40:55;;;;;;;10.40;7.70;;;3.90;55.00;;;;;;6146470;23;20217;-81
2022/03/12 04:43:25;;;;;;;8.73;7.13;;;3.90;54.90;;;;;;6140790;23;20266;-82
2022/03/12 04:45:52;;;;;;;13.10;10.05;;;3.90;55.00;;;;;;6132367;23;20183;-82
2022/03/12 04:48:21;;;;;;;10.95;7.80;;;4.00;55.00;;;;;;6131870;23;20179;-81
2022/03/12 04:50:49;;;;;;;9.93;8.70;;;4.00;55.00;;;;;;6131572;23;20269;-82
2022/03/12 04:53:16;;;;;;;9.20;7.95;;;4.10;55.00;;;;;;6131687;23;20194;-82
2022/03/12 04:55:44;;;;;;;9.68;8.60;;;4.10;54.90;;;;;;6132268;23;20234;-82
2022/03/12 04:58:12;;;;;;;8.65;7.78;;;4.10;54.70;;;;;;6132179;23;20210;-82
2022/03/12 05:00:42;;;;;;;8.50;7.70;;;4.10;54.60;;;;;;6131337;23;20266;-82
2022/03/12 05:03:10;;;;;;;11.63;7.95;;;4.20;54.30;;;;;;6132470;23;20191;-82
2022/03/12 05:05:39;;;;;;;8.65;7.75;;;4.20;54.20;;;;;;6132104;23;20206;-82
2022/03/12 05:08:06;;;;;;;8.32;7.47;;;4.10;54.10;;;;;;6131953;23;20211;-82
2022/03/12 05:10:34;;;;;;;8.98;7.63;;;4.10;54.20;;;;;;6130791;23;20535;-82
2022/03/12 05:13:01;;;;;;;9.98;9.07;;;4.10;54.00;;;;;;6131306;23;20183;-82
2022/03/12 05:15:34;;;;;;;9.60;7.43;;;4.20;54.20;;;;;;6131851;23;20180;-82
2022/03/12 05:18:03;;;;;;;10.75;6.85;;;4.10;54.30;;;;;;6131905;23;20647;-82
2022/03/12 05:20:30;;;;;;;8.85;7.95;;;4.10;54.30;;;;;;6130743;23;20612;-82
2022/03/12 05:22:57;;;;;;;8.52;7.68;;;4.20;54.00;;;;;;6131750;23;20171;-82
2022/03/12 05:25:26;;;;;;;10.95;8.23;;;4.20;53.90;;;;;;6131639;23;20259;-82
2022/03/12 05:27:54;;;;;;;10.25;8.52;;;4.20;54.00;;;;;;6132087;23;20184;-82
2022/03/12 05:30:22;;;;;;;10.73;6.90;;;4.30;53.80;;;;;;6129594;23;20206;-83
2022/03/12 05:32:50;;;;;;;14.18;9.07;;;4.30;53.50;;;;;;6131767;23;20251;-82
2022/03/12 05:35:19;;;;;;;9.82;8.85;;;4.30;53.40;;;;;;6131338;23;20193;-82
2022/03/12 05:37:46;;;;;;;8.27;7.43;;;4.30;53.10;;;;;;6131231;23;20209;-82
2022/03/12 05:40:15;;;;;;;9.40;7.93;;;4.40;53.00;;;;;;6130611;23;20203;-83
2022/03/12 05:42:43;;;;;;;9.73;8.73;;;4.40;53.00;;;;;;6131185;23;20184;-83
2022/03/12 05:45:10;;;;;;;8.88;7.30;;;4.50;53.10;;;;;;6131511;23;20184;-82
2022/03/12 05:47:38;;;;;;;14.00;7.88;;;4.60;52.60;;;;;;6131488;23;20180;-83
2022/03/12 05:50:09;;;;;;;9.27;8.30;;;4.60;52.50;;;;;;6131852;23;20183;-82
2022/03/12 05:52:38;;;;;;;11.07;6.93;;;4.60;52.10;;;;;;6134684;23;20638;-82
2022/03/12 05:55:06;;;;;;;9.32;8.50;;;4.60;52.20;;;;;;6144262;23;20234;-82
2022/03/12 05:57:33;;;;;;;9.35;8.20;;;4.50;52.20;;;;;;6145892;23;20200;-82
2022/03/12 06:00:02;;;;;;;10.30;6.55;;;4.50;52.50;;;;;;6145763;23;20191;-83
2022/03/12 06:02:29;;;;;;;10.43;7.72;;;4.50;52.80;;;;;;6137879;23;20184;-82
2022/03/12 06:04:57;;;;;;;7.57;6.70;;;4.50;52.60;;;;;;6134018;23;20188;-82
2022/03/12 06:07:24;;;;;;;8.38;7.57;;;4.50;52.80;;;;;;6133863;23;20180;-83
2022/03/12 06:09:52;;;;;;;11.07;7.57;;;4.60;52.50;;;;;;6133877;23;20183;-83
2022/03/12 06:12:20;;;;;;;7.35;6.38;;;4.60;52.20;;;;;;6133193;23;20180;-82
2022/03/12 06:14:47;;;;;;;8.82;7.90;;;4.60;52.70;;;;;;6133433;23;20519;-83
2022/03/12 06:17:14;;;;;;;9.10;8.20;;;4.50;52.20;;;;;;6133458;23;20203;-83
2022/03/12 06:19:41;;;;;;;9.15;7.95;;;4.50;52.20;;;;;;6133535;23;20191;-82
2022/03/12 06:22:08;;;;;;;7.70;6.93;;;4.60;52.40;;;;;;6132829;23;20222;-82
2022/03/12 06:24:35;;;;;;;10.45;7.75;;;4.60;52.30;;;;;;6132923;23;20643;-82
2022/03/12 06:27:03;;;;;;;8.73;7.00;;;4.60;52.50;;;;;;6133583;23;20190;-82
2022/03/12 06:29:30;;;;;;;10.00;7.85;;;4.60;52.40;;;;;;6133931;23;20186;-82
2022/03/12 06:31:57;;;;;;;6.97;6.10;;;4.50;52.60;;;;;;6132424;23;20213;-82
2022/03/12 06:34:23;;;;;;;8.88;8.00;;;4.50;52.60;;;;;;6133233;23;20179;-82
2022/03/12 06:36:50;;;;;;;7.90;7.13;;;4.50;52.90;;;;;;6132572;23;20180;-82
2022/03/12 06:39:17;;;;;;;9.10;8.15;;;4.50;53.00;;;;;;6133060;23;20184;-82
2022/03/12 06:41:45;;;;;;;7.50;6.88;;;4.50;53.10;;;;;;6132556;23;20585;-83
2022/03/12 06:44:16;;;;;;;12.30;8.57;;;4.50;53.20;;;;;;6132575;23;20635;-82
2022/03/12 06:46:43;;;;;;;8.13;7.35;;;4.60;53.00;;;;;;6132608;23;20484;-82
2022/03/12 06:49:10;;;;;;;9.30;8.35;;;4.60;53.00;;;;;;6133208;23;20211;-82
2022/03/12 06:51:38;;;;;;;9.18;6.85;;;4.60;52.50;;;;;;6136749;23;20221;-82
2022/03/12 06:54:05;;;;;;;10.20;7.22;;;4.60;52.50;;;;;;6134112;23;20180;-83
2022/03/12 06:56:34;;;;;;;9.98;7.85;;;4.60;52.70;;;;;;6133808;23;20283;-83
2022/03/12 06:59:00;;;;;;;8.82;6.65;;;4.70;52.50;;;;;;6132598;23;20267;-83
2022/03/12 07:01:29;;;;;;;7.72;7.00;;;4.60;52.40;;;;;;6131804;23;20210;-83
2022/03/12 07:03:55;;;;;;;9.05;7.90;;;4.70;52.80;;;;;;6132227;23;20183;-83
2022/03/12 07:06:22;;;;;;;10.73;8.13;;;4.70;53.00;;;;;;6132653;23;20189;-83
2022/03/12 07:08:49;;;;;;;9.95;7.95;;;4.70;53.10;;;;;;6132268;23;20183;-82
2022/03/12 07:11:17;;;;;;;10.85;8.68;;;4.80;54.50;;;;;;6132392;23;20231;-83
2022/03/12 07:13:44;;;;;;;13.65;7.53;;;4.90;55.30;;;;;;6131688;23;20215;-83
2022/03/12 07:16:11;;;;;;;10.45;7.97;;;4.90;54.30;;;;;;6133460;23;20183;-83
2022/03/12 07:18:39;;;;;;;8.40;7.53;;;5.10;52.90;;;;;;6132901;23;20199;-83
2022/03/12 07:21:07;;;;;;;12.35;10.05;;;5.10;52.40;;;;;;6133103;23;20223;-83
2022/03/12 07:23:34;;;;;;;8.75;7.57;;;5.20;52.40;;;;;;6140285;23;20182;-83
2022/03/12 07:26:01;;;;;;;11.13;8.27;;;5.30;52.40;;;;;;6138994;23;20211;-85
2022/03/12 07:28:28;;;;;;;11.20;8.50;;;5.50;52.30;;;;;;6146365;23;20195;-84
2022/03/12 07:30:54;;;;;;;12.57;7.15;;;5.50;52.20;;;;;;6141596;23;20287;-84
2022/03/12 07:33:21;;;;;;;8.27;7.07;;;5.60;52.00;;;;;;6143454;23;20183;-83
2022/03/12 07:35:49;;;;;;;12.07;8.95;;;5.70;51.50;;;;;;6146264;23;20203;-83
2022/03/12 07:38:16;;;;;;;9.88;9.07;;;5.70;51.60;;;;;;6148533;23;20211;-83
2022/03/12 07:40:43;;;;;;;9.45;8.55;;;5.80;51.60;;;;;;6141820;23;20218;-84
2022/03/12 07:43:10;;;;;;;10.40;8.25;;;5.80;51.60;;;;;;6134711;23;20180;-84
2022/03/12 07:45:37;;;;;;;9.50;7.55;;;5.90;51.70;;;;;;6139721;23;20190;-84
2022/03/12 07:48:04;;;;;;;8.60;7.78;;;5.90;51.60;;;;;;6136053;23;20542;-83
2022/03/12 07:50:31;;;;;;;13.00;9.25;;;6.00;51.70;;;;;;6134588;23;20200;-85
2022/03/12 07:52:59;;;;;;;12.27;9.23;;;6.10;51.70;;;;;;6134814;23;20563;-83
2022/03/12 07:55:27;;;;;;;10.85;9.52;;;6.30;51.50;;;;;;6134364;23;20194;-84
2022/03/12 07:57:53;;;;;;;13.95;9.18;;;6.40;51.70;;;;;;6133475;23;20783;-84
2022/03/12 08:00:20;;;;;;;10.13;9.13;;;6.50;51.30;;;;;;6133038;23;20214;-85
2022/03/12 08:02:50;;;;;;;9.85;7.93;;;6.50;51.30;;;;;;6135299;23;20515;-85
2022/03/12 08:05:19;;;;;;;10.38;8.35;;;6.60;51.80;;;;;;6133907;23;20168;-85
2022/03/12 08:07:46;;;;;;;8.23;7.13;;;6.70;51.20;;;;;;6131246;23;20202;-86
2022/03/12 08:10:14;;;;;;;11.32;8.30;;;6.70;51.50;;;;;;6136817;23;20782;-85
2022/03/12 08:12:41;;;;;;;11.68;8.70;;;6.80;51.10;;;;;;6132481;23;20204;-86
2022/03/12 08:15:11;;;;;;;9.00;8.13;;;6.80;51.00;;;;;;6131837;23;20568;-84
2022/03/12 08:17:38;;;;;;;10.80;8.35;;;6.90;51.30;;;;;;6134037;23;20538;-84
2022/03/12 08:54:46;;;;;;;14.40;8.95;;;8.20;49.60;;;;;;5857979;24;20192;-83
2022/03/12 09:07:23;;;;;;;11.43;10.20;;;8.50;48.90;;;;;;5842456;24;20191;-81
2022/03/12 09:12:51;;;;;;;13.00;9.67;;;8.80;49.80;;;;;;6136000;23;20584;-83
2022/03/12 09:15:21;;;;;;;13.55;12.23;;;9.00;49.30;;;;;;6135511;23;20413;-85
2022/03/12 09:17:47;;;;;;;11.60;9.85;;;9.20;48.70;;;;;;6132124;23;20210;-82
2022/03/12 09:20:16;;;;;;;12.45;11.15;;;9.30;48.30;;;;;;6131985;23;20243;-84
2022/03/12 09:22:42;;;;;;;14.40;11.40;;;9.40;47.80;;;;;;6135149;23;20192;-82
2022/03/12 09:25:13;;;;;;;13.30;10.93;;;9.60;47.70;;;;;;6135536;23;20477;-83
2022/03/12 09:27:39;;;;;;;18.57;12.03;;;9.60;47.60;;;;;;6136087;23;20426;-82
2022/03/12 09:30:07;;;;;;;15.70;12.00;;;9.80;48.00;;;;;;6135397;23;20413;-82
2022/03/12 09:32:35;;;;;;;17.33;10.70;;;10.00;46.90;;;;;;6136640;23;20910;-81
2022/03/12 09:35:01;;;;;;;13.87;10.80;;;10.20;46.80;;;;;;6135991;23;20425;-84
2022/03/12 09:37:29;;;;;;;13.40;11.37;;;10.30;46.20;;;;;;6134173;23;20422;-82
2022/03/12 09:39:56;;;;;;;12.80;10.83;;;10.50;45.90;;;;;;6133375;23;20418;-81
2022/03/12 09:42:26;;;;;;;12.90;11.43;;;10.60;45.70;;;;;;6132154;23;20426;-81
2022/03/12 09:44:52;;;;;;;12.97;11.80;;;10.70;45.90;;;;;;6136538;23;20417;-84
2022/03/12 09:47:19;;;;;;;12.97;11.33;;;10.80;45.60;;;;;;6136270;23;20494;-84
2022/03/12 09:49:46;;;;;;;13.23;10.87;;;10.80;45.70;;;;;;6136859;23;20420;-82
2022/03/12 09:52:13;;;;;;;12.57;11.27;;;10.90;45.90;;;;;;6136738;23;20467;-85
2022/03/12 09:54:42;;;;;;;14.60;11.53;;;11.00;45.40;;;;;;6137832;23;20473;-83
2022/03/12 09:57:09;;;;;;;14.37;11.90;;;11.10;45.40;;;;;;6137170;23;20477;-84
2022/03/12 09:59:35;;;;;;;20.77;12.90;;;11.10;45.00;;;;;;6138175;23;20461;-84
2022/03/12 10:02:02;;;;;;;16.47;12.23;;;11.10;45.70;;;;;;6142058;23;20500;-81
2022/03/12 10:04:29;;;;;;;20.10;12.43;;;11.20;45.70;;;;;;6144233;23;20482;-81
2022/03/12 10:06:56;;;;;;;20.23;13.50;;;11.40;45.60;;;;;;6144989;23;20410;-80
2022/03/12 10:09:23;;;;;;;16.77;13.60;;;11.50;45.60;;;;;;6143767;23;20403;-81
2022/03/12 11:01:08;;;;;;;;;;;;;;;;;;;;;
2022/03/12 11:14:08;;;;;;;15.17;13.57;;;16.50;41.40;;;;;;5773153;24;20365;-81
2022/03/12 11:19:57;;;;;;;15.83;13.93;;;17.60;42.60;;;;;;6046435;23;20454;-82
2022/03/12 11:22:28;;;;;;;14.60;13.30;;;18.20;40.80;;;;;;6053305;23;20545;-82
2022/03/12 11:25:05;;;;;;;14.30;12.80;;;19.00;40.70;;;;;;6112829;23;20423;-83
2022/03/12 11:41:49;;;;;;;15.07;13.47;;;20.70;38.40;;;;;;6135600;23;20439;-88
2022/03/12 11:44:20;;;;;;;14.63;13.10;;;21.00;38.60;;;;;;6137464;23;20398;-86
2022/03/12 11:46:47;;;;;;;14.20;12.87;;;21.30;38.30;;;;;;6137141;23;20866;-84
2022/03/12 11:49:13;;;;;;;15.03;12.90;;;21.80;37.70;;;;;;6133958;23;20407;-84
2022/03/12 11:51:40;;;;;;;15.60;14.00;;;22.20;36.80;;;;;;6132906;23;20439;-86
2022/03/12 11:54:07;;;;;;;16.93;13.97;;;22.30;37.00;;;;;;6135184;23;20419;-84
2022/03/12 11:56:35;;;;;;;15.40;13.90;;;22.10;36.10;;;;;;6136426;23;20450;-85
2022/03/12 11:59:03;;;;;;;15.33;13.77;;;22.50;36.80;;;;;;6134028;23;20455;-84
2022/03/12 12:01:29;;;;;;;12.00;10.80;;;22.90;35.50;;;;;;6133648;23;20447;-83
2022/03/12 12:03:56;;;;;;;11.33;10.23;;;23.30;36.80;;;;;;6132003;23;20415;-84
2022/03/12 12:06:23;;;;;;;11.43;10.43;;;23.50;37.00;;;;;;6131665;23;20425;-83
2022/03/12 12:08:51;;;;;;;9.00;8.30;;;23.60;36.90;;;;;;6133230;23;20407;-85
2022/03/12 12:11:18;;;;;;;10.40;9.50;;;23.50;37.70;;;;;;6133197;23;20427;-85
2022/03/12 12:13:45;;;;;;;10.23;9.23;;;23.90;37.60;;;;;;6131566;23;20426;-83
2022/03/12 12:16:15;;;;;;;10.00;9.03;;;24.00;37.80;;;;;;6132157;23;20930;-82
2022/03/12 12:18:42;;;;;;;10.30;9.33;;;24.70;37.60;;;;;;6132078;23;20531;-85
2022/03/12 12:21:17;;;;;;;12.37;11.17;;;24.80;35.90;;;;;;6123406;23;20439;-84
2022/03/12 12:23:44;;;;;;;9.90;9.00;;;24.50;35.80;;;;;;6131658;23;20384;-84
2022/03/12 12:26:13;;;;;;;10.10;9.10;;;24.30;35.80;;;;;;6133764;23;20397;-84
2022/03/12 12:28:48;;;;;;;9.57;8.70;;;24.40;36.20;;;;;;6128008;23;20887;-82
2022/03/12 12:31:20;;;;;;;10.47;8.70;;;24.60;36.60;;;;;;6126523;23;20427;-82
2022/03/12 12:33:47;;;;;;;9.80;9.00;;;25.00;36.90;;;;;;6127636;23;20448;-82
2022/03/12 12:36:16;;;;;;;11.50;10.30;;;25.40;36.00;;;;;;6127306;23;20417;-84
2022/03/12 12:39:05;;;;;;;9.10;8.30;;;25.50;34.40;;;;;;6130326;23;20445;-86
2022/03/12 12:41:52;;;;;;;9.67;8.77;;;25.50;35.10;;;;;;6133960;23;20446;-85
2022/03/12 12:44:35;;;;;;;9.47;8.67;;;26.00;34.80;;;;;;6135316;23;20398;-86
2022/03/12 12:47:05;;;;;;;9.23;8.30;;;26.50;34.20;;;;;;6135325;23;20447;-85
2022/03/12 12:49:36;;;;;;;9.87;8.73;;;26.80;33.70;;;;;;6127258;23;20413;-86
2022/03/12 12:52:03;;;;;;;9.97;9.13;;;27.10;33.50;;;;;;6126191;23;20497;-85
2022/03/12 12:54:56;;;;;;;8.40;7.70;;;27.40;32.90;;;;;;6127156;23;20460;-85
2022/03/12 12:57:39;;;;;;;9.77;8.87;;;26.90;31.50;;;;;;6127211;23;20402;-85
2022/03/12 13:00:31;;;;;;;9.40;8.50;;;26.30;33.00;;;;;;6125814;23;20468;-84
2022/03/12 13:03:01;;;;;;;9.57;8.77;;;25.90;33.30;;;;;;6126459;23;20412;-85
2022/03/12 13:05:43;;;;;;;8.43;7.63;;;26.00;34.10;;;;;;6127242;23;20485;-85
2022/03/12 13:08:10;;;;;;;9.77;8.93;;;26.00;33.70;;;;;;6127575;23;20397;-86
2022/03/12 13:10:37;;;;;;;9.43;8.63;;;25.80;33.50;;;;;;6126548;23;20510;-86
2022/03/12 13:13:14;;;;;;;9.17;8.30;;;26.10;33.40;;;;;;6127701;23;20423;-86
2022/03/12 13:15:42;;;;;;;10.13;9.30;;;26.40;33.40;;;;;;6129142;23;20468;-84
2022/03/12 13:18:41;;;;;;;11.40;10.40;;;26.30;32.70;;;;;;6128856;23;20411;-85
2022/03/12 13:21:35;;;;;;;11.30;10.40;;;26.30;32.30;;;;;;6125824;23;20432;-86
2022/03/12 13:24:08;;;;;;;12.57;11.40;;;24.90;32.10;;;;;;6058963;23;20424;-85
2022/03/12 13:26:45;;;;;;;11.80;10.73;;;23.90;33.10;;;;;;6126697;23;20443;-86
2022/03/12 13:29:20;;;;;;;9.53;8.80;;;23.80;34.40;;;;;;6127160;23;20419;-87
2022/03/12 13:31:47;;;;;;;11.03;9.97;;;24.30;35.10;;;;;;6126172;23;20432;-83
2022/03/12 13:34:17;;;;;;;11.57;10.47;;;24.70;34.20;;;;;;6127457;23;20891;-84
2022/03/12 13:36:46;;;;;;;11.83;10.83;;;25.30;34.30;;;;;;6127949;23;20414;-85
2022/03/12 13:39:15;;;;;;;12.53;10.70;;;25.50;33.20;;;;;;6130964;23;20479;-85
2022/03/12 13:41:44;;;;;;;12.97;11.80;;;25.20;32.30;;;;;;6133847;23;20445;-82
2022/03/12 13:44:12;;;;;;;16.17;12.70;;;24.10;32.20;;;;;;6130631;23;20584;-84
2022/03/12 13:46:39;;;;;;;11.87;10.70;;;23.70;33.70;;;;;;6129010;23;20947;-84
2022/03/12 13:49:11;;;;;;;13.20;12.10;;;23.90;34.50;;;;;;6128724;23;20447;-86
2022/03/12 13:51:44;;;;;;;11.43;10.43;;;24.30;34.50;;;;;;6131710;23;20472;-86
2022/03/12 13:54:11;;;;;;;13.33;12.03;;;24.80;34.20;;;;;;6130208;23;20415;-86
2022/03/12 13:56:40;;;;;;;11.97;10.77;;;24.80;33.70;;;;;;6130981;23;20408;-84
2022/03/12 13:59:10;;;;;;;13.57;12.17;;;25.20;33.30;;;;;;6130127;23;20455;-84
2022/03/12 14:01:39;;;;;;;11.63;10.63;;;24.70;33.00;;;;;;6131326;23;20431;-87
2022/03/12 14:04:07;;;;;;;12.80;11.70;;;24.20;33.60;;;;;;6132959;23;20414;-87
2022/03/12 14:06:39;;;;;;;12.50;11.20;;;24.30;34.10;;;;;;6135490;23;20494;-88
2022/03/12 14:09:10;;;;;;;12.90;11.50;;;24.70;34.30;;;;;;6138105;23;20428;-87
2022/03/12 14:11:41;;;;;;;11.70;10.60;;;24.70;33.80;;;;;;6139773;23;20452;-88
2022/03/12 14:14:32;;;;;;;11.03;10.03;;;24.60;34.50;;;;;;6140581;23;20479;-87
2022/03/12 14:17:21;;;;;;;11.27;10.13;;;24.60;33.70;;;;;;6133976;23;20424;-88
2022/03/12 14:19:56;;;;;;;12.70;11.60;;;24.10;33.60;;;;;;6140473;23;20440;-87
2022/03/12 14:22:23;;;;;;;10.93;9.90;;;23.80;35.00;;;;;;6143801;23;20488;-81
2022/03/12 14:24:54;;;;;;;11.80;10.70;;;23.40;35.20;;;;;;6149834;23;20422;-81
2022/03/12 14:27:27;;;;;;;13.13;12.00;;;23.20;35.00;;;;;;6145494;23;20428;-82
2022/03/12 14:29:56;;;;;;;11.20;10.10;;;22.80;35.20;;;;;;6139786;23;20524;-84
2022/03/12 14:32:23;;;;;;;12.07;10.97;;;22.40;35.70;;;;;;6142666;23;20522;-84
2022/03/12 14:34:49;;;;;;;12.07;10.47;;;22.10;36.40;;;;;;6143580;23;20467;-85
2022/03/12 14:37:19;;;;;;;11.60;10.50;;;22.20;36.70;;;;;;6141679;23;20401;-84
2022/03/12 14:39:47;;;;;;;11.37;10.37;;;22.40;36.40;;;;;;6142251;23;20469;-85
2022/03/12 14:42:15;;;;;;;13.00;11.80;;;22.50;35.70;;;;;;6142127;23;20427;-85
2022/03/12 14:44:45;;;;;;;10.83;9.93;;;22.50;36.20;;;;;;6142161;23;20412;-84
2022/03/12 14:47:14;;;;;;;12.27;10.70;;;22.50;36.20;;;;;;6140659;23;20457;-84
2022/03/12 14:49:42;;;;;;;11.50;10.37;;;22.60;36.10;;;;;;6142383;23;20475;-84
2022/03/12 14:52:17;;;;;;;11.77;10.70;;;22.50;35.80;;;;;;6132672;23;20427;-83
2022/03/12 14:54:47;;;;;;;12.43;10.60;;;22.40;36.40;;;;;;6133773;23;20394;-83
2022/03/12 14:57:18;;;;;;;11.33;10.23;;;22.40;36.30;;;;;;6148205;23;20413;-84
2022/03/12 14:59:46;;;;;;;12.73;10.57;;;22.60;36.40;;;;;;6145223;23;20432;-84
2022/03/12 15:02:16;;;;;;;10.47;9.17;;;22.70;35.70;;;;;;6142638;23;20430;-85
2022/03/12 15:04:50;;;;;;;11.27;10.17;;;22.90;36.10;;;;;;6141438;23;20435;-85